Time;durP1;ratioP1;P1;durP2;ratioP2;P2;SDS_P1;SDS_P2;PMS_P1;PMS_P2;Temp;Humidity;BMP_temperature;BMP_pressure;BME280_temperature;BME280_humidity;BME280_pressure;Samples;Min_cycle;Max_cycle;Signal;HPM_P1;HPM_P2
2022/05/12 00:01:54;;;;;;;12.02;2.60;;;;;;;;;;5032614;28;92515;-74
2022/05/12 00:04:21;;;;;;;11.07;2.20;;;;;;;;;;5033098;28;92833;-73
2022/05/12 00:06:47;;;;;;;15.30;2.67;;;;;;;;;;5031845;28;95253;-73
2022/05/12 00:09:13;;;;;;;13.52;2.20;;;;;;;;;;5033037;28;92462;-73
2022/05/12 00:11:40;;;;;;;9.80;2.42;;;;;;;;;;5031037;28;94932;-74
2022/05/12 00:14:06;;;;;;;12.63;2.28;;;;;;;;;;5031431;28;92417;-73
2022/05/12 00:16:32;;;;;;;15.40;2.75;;;;;;;;;;5032414;28;92510;-74
2022/05/12 00:18:59;;;;;;;6.30;1.88;;;;;;;;;;5035475;28;94290;-74
2022/05/12 00:21:25;;;;;;;15.88;2.45;;;;;;;;;;5031804;28;92578;-73
2022/05/12 00:23:58;;;;;;;11.02;2.88;;;;;;;;;;5032967;28;93914;-74
2022/05/12 00:26:24;;;;;;;;;;;;;;;;;;5031441;28;94237;-74
2022/05/12 00:28:51;;;;;;;17.02;2.80;;;;;;;;;;5033685;28;118432;-73
2022/05/12 00:31:17;;;;;;;18.63;3.03;;;;;;;;;;5032736;28;93368;-74
2022/05/12 00:33:44;;;;;;;15.93;3.10;;;;;;;;;;5031477;28;94104;-73
2022/05/12 00:36:11;;;;;;;11.60;2.60;;;;;;;;;;5031019;28;94890;-74
2022/05/12 00:38:37;;;;;;;17.02;3.88;;;;;;;;;;5032080;28;96657;-73
2022/05/12 00:41:03;;;;;;;15.05;3.45;;;;;;;;;;5034082;28;93602;-73
2022/05/12 00:43:42;;;;;;;15.98;2.97;;;;;;;;;;5031945;28;93158;-73
2022/05/12 00:46:18;;;;;;;16.52;2.78;;;;;;;;;;5031864;28;93592;-73
2022/05/12 00:48:46;;;;;;;13.18;3.78;;;;;;;;;;5031291;28;92445;-73
2022/05/12 00:51:18;;;;;;;12.77;3.00;;;;;;;;;;5032099;28;93281;-73
2022/05/12 00:53:45;;;;;;;14.27;3.47;;;;;;;;;;5031983;28;92721;-73
2022/05/12 00:56:14;;;;;;;17.65;2.72;;;;;;;;;;5031249;28;92538;-73
2022/05/12 00:58:41;;;;;;;8.65;2.80;;;;;;;;;;5031228;28;93057;-73
2022/05/12 01:01:09;;;;;;;15.57;3.33;;;;;;;;;;5032256;27;96801;-74
2022/05/12 01:03:38;;;;;;;11.18;2.72;;;;;;;;;;5038140;28;92515;-74
2022/05/12 01:06:04;;;;;;;15.45;2.90;;;;;;;;;;5035507;28;94382;-74
2022/05/12 01:08:30;;;;;;;13.38;3.28;;;;;;;;;;5034008;27;92487;-74
2022/05/12 01:11:00;;;;;;;17.05;3.10;;;;;;;;;;5035562;28;93971;-74
2022/05/12 01:13:29;;;;;;;8.63;2.88;;;;;;;;;;5034835;28;93863;-74
2022/05/12 01:15:58;;;;;;;14.07;3.22;;;;;;;;;;5035020;28;92790;-74
2022/05/12 01:18:25;;;;;;;13.27;2.85;;;;;;;;;;5035781;28;94004;-74
2022/05/12 01:20:52;;;;;;;12.80;2.88;;;;;;;;;;5035365;28;94267;-74
2022/05/12 01:23:22;;;;;;;14.73;3.25;;;;;;;;;;5034901;28;92822;-74
2022/05/12 01:25:48;;;;;;;13.60;3.13;;;;;;;;;;5036246;28;94913;-74
2022/05/12 01:28:15;;;;;;;17.45;3.75;;;;;;;;;;5035153;28;92492;-74
2022/05/12 01:30:41;;;;;;;13.50;2.85;;;;;;;;;;5034331;28;93754;-74
2022/05/12 01:33:09;;;;;;;17.33;3.25;;;;;;;;;;5034900;28;92841;-74
2022/05/12 01:35:35;;;;;;;14.30;2.85;;;;;;;;;;5034898;28;92465;-74
2022/05/12 01:38:02;;;;;;;11.95;3.47;;;;;;;;;;5034666;28;93799;-74
2022/05/12 01:40:28;;;;;;;13.35;3.30;;;;;;;;;;5034496;27;94537;-74
2022/05/12 01:42:55;;;;;;;17.80;3.45;;;;;;;;;;5035485;28;91710;-74
2022/05/12 01:45:22;;;;;;;14.07;3.60;;;;;;;;;;5033904;28;92480;-73
2022/05/12 01:47:50;;;;;;;17.77;3.22;;;;;;;;;;5037736;28;94214;-74
2022/05/12 01:50:17;;;;;;;14.80;3.28;;;;;;;;;;5033370;28;94833;-74
2022/05/12 01:52:46;;;;;;;16.55;3.15;;;;;;;;;;5033792;28;94265;-74
2022/05/12 01:55:14;;;;;;;15.88;3.55;;;;;;;;;;5034663;28;92531;-74
2022/05/12 01:57:43;;;;;;;13.82;3.33;;;;;;;;;;5033990;28;93897;-74
2022/05/12 02:00:15;;;;;;;10.93;2.92;;;;;;;;;;5034615;28;94239;-74
2022/05/12 02:02:41;;;;;;;22.95;3.38;;;;;;;;;;5034577;28;93329;-74
2022/05/12 02:05:10;;;;;;;19.17;3.58;;;;;;;;;;5034199;28;93776;-74
2022/05/12 02:07:41;;;;;;;12.07;3.45;;;;;;;;;;5034497;28;93745;-74
2022/05/12 02:10:09;;;;;;;12.00;3.40;;;;;;;;;;5037845;28;92547;-74
2022/05/12 02:12:35;;;;;;;14.70;3.50;;;;;;;;;;5033268;28;93990;-74
2022/05/12 02:15:02;;;;;;;15.27;3.50;;;;;;;;;;5032995;28;95258;-73
2022/05/12 02:17:29;;;;;;;18.88;4.57;;;;;;;;;;5034182;28;96778;-74
2022/05/12 02:19:55;;;;;;;17.50;4.40;;;;;;;;;;5033775;27;94425;-74
2022/05/12 02:22:21;;;;;;;16.65;4.78;;;;;;;;;;5034128;28;92476;-74
2022/05/12 02:24:48;;;;;;;12.30;4.60;;;;;;;;;;5034292;28;93925;-74
2022/05/12 02:27:14;;;;;;;10.05;4.07;;;;;;;;;;5033124;28;94077;-74
2022/05/12 02:29:40;;;;;;;14.82;4.43;;;;;;;;;;5037248;28;92525;-74
2022/05/12 02:32:07;;;;;;;20.63;4.97;;;;;;;;;;5034567;28;93936;-74
2022/05/12 02:34:34;;;;;;;17.17;4.60;;;;;;;;;;5032599;27;92472;-74
2022/05/12 02:37:01;;;;;;;16.38;5.65;;;;;;;;;;5034235;28;93763;-75
2022/05/12 02:39:29;;;;;;;12.15;4.82;;;;;;;;;;5031410;28;94835;-73
2022/05/12 02:41:55;;;;;;;14.80;5.07;;;;;;;;;;5033607;28;93174;-73
2022/05/12 02:44:21;;;;;;;7.82;5.20;;;;;;;;;;5033874;28;93953;-73
2022/05/12 02:46:48;;;;;;;15.80;6.63;;;;;;;;;;5033921;28;95113;-73
2022/05/12 02:49:14;;;;;;;17.27;7.93;;;;;;;;;;5033204;28;92525;-73
2022/05/12 02:51:43;;;;;;;19.00;6.43;;;;;;;;;;5036865;28;93567;-73
2022/05/12 02:54:13;;;;;;;20.15;7.93;;;;;;;;;;5033382;28;92497;-73
2022/05/12 02:56:39;;;;;;;20.88;9.68;;;;;;;;;;5034105;28;93975;-73
2022/05/12 02:59:06;;;;;;;20.40;8.68;;;;;;;;;;5033823;28;94190;-73
2022/05/12 03:01:33;;;;;;;19.38;9.93;;;;;;;;;;5032949;28;92521;-73
2022/05/12 03:03:59;;;;;;;18.80;10.52;;;;;;;;;;5032295;28;95278;-73
2022/05/12 03:06:26;;;;;;;20.38;9.70;;;;;;;;;;5032612;28;94198;-73
2022/05/12 03:08:53;;;;;;;17.52;11.27;;;;;;;;;;5032872;28;92505;-73
2022/05/12 03:11:20;;;;;;;24.20;11.38;;;;;;;;;;5032334;28;92579;-73
2022/05/12 03:13:48;;;;;;;21.98;11.30;;;;;;;;;;5035840;28;95420;-73
2022/05/12 03:16:17;;;;;;;24.70;12.70;;;;;;;;;;5032115;28;94284;-73
2022/05/12 03:18:46;;;;;;;19.40;11.38;;;;;;;;;;5032398;28;94010;-73
2022/05/12 03:21:13;;;;;;;23.75;12.25;;;;;;;;;;5033307;28;91715;-73
2022/05/12 03:23:40;;;;;;;21.10;11.85;;;;;;;;;;5030574;27;92838;-73
2022/05/12 03:26:07;;;;;;;19.05;10.90;;;;;;;;;;5032059;28;93621;-73
2022/05/12 03:28:33;;;;;;;26.25;12.88;;;;;;;;;;5030604;28;94897;-73
2022/05/12 03:31:00;;;;;;;20.10;11.68;;;;;;;;;;5031864;28;96403;-73
2022/05/12 03:33:26;;;;;;;17.05;10.48;;;;;;;;;;5032097;28;94251;-73
2022/05/12 03:35:53;;;;;;;16.63;10.88;;;;;;;;;;5035429;28;92482;-73
2022/05/12 03:38:19;;;;;;;21.35;10.05;;;;;;;;;;5031563;28;94524;-73
2022/05/12 03:40:46;;;;;;;23.42;11.60;;;;;;;;;;5032038;28;92891;-73
2022/05/12 03:44:46;;;;;;;15.80;11.63;;;;;;;;;;5031264;28;93986;-73
2022/05/12 03:45:59;;;;;;;17.95;11.70;;;;;;;;;;5032699;28;93287;-73
2022/05/12 03:48:26;;;;;;;23.70;11.95;;;;;;;;;;5031914;27;93981;-73
2022/05/12 03:50:52;;;;;;;16.75;10.70;;;;;;;;;;5031076;28;93588;-73
2022/05/12 03:53:18;;;;;;;19.33;11.02;;;;;;;;;;5030110;28;96718;-73
2022/05/12 03:55:45;;;;;;;19.90;10.93;;;;;;;;;;5031620;28;92473;-73
2022/05/12 03:58:11;;;;;;;22.73;10.60;;;;;;;;;;5034379;28;94300;-73
2022/05/12 04:00:38;;;;;;;17.08;8.60;;;;;;;;;;5031611;28;92527;-73
2022/05/12 04:03:04;;;;;;;15.57;9.95;;;;;;;;;;5032592;27;94007;-73
2022/05/12 04:05:31;;;;;;;14.63;9.95;;;;;;;;;;5031665;28;94239;-74
2022/05/12 04:07:58;;;;;;;20.05;9.80;;;;;;;;;;5032692;28;93035;-74
2022/05/12 04:10:25;;;;;;;14.93;9.32;;;;;;;;;;5032764;27;93907;-73
2022/05/12 04:12:52;;;;;;;16.92;9.15;;;;;;;;;;5031713;28;94286;-73
2022/05/12 04:15:21;;;;;;;16.63;9.68;;;;;;;;;;5032126;28;92479;-73
2022/05/12 04:17:55;;;;;;;16.30;9.77;;;;;;;;;;5031147;28;95425;-73
2022/05/12 04:20:21;;;;;;;14.30;8.93;;;;;;;;;;5034248;28;93592;-74
2022/05/12 04:22:48;;;;;;;16.30;9.52;;;;;;;;;;5031948;28;93135;-73
2022/05/12 04:25:14;;;;;;;16.58;9.00;;;;;;;;;;5031831;28;93359;-74
2022/05/12 04:27:41;;;;;;;19.88;9.32;;;;;;;;;;5031471;28;92533;-74
2022/05/12 04:30:08;;;;;;;15.38;9.35;;;;;;;;;;5032597;28;94192;-73
2022/05/12 04:32:34;;;;;;;24.73;8.85;;;;;;;;;;5031218;28;94617;-73
2022/05/12 04:35:11;;;;;;;21.63;9.80;;;;;;;;;;5034940;27;92012;-73
2022/05/12 04:37:39;;;;;;;14.50;8.65;;;;;;;;;;5035246;28;92720;-74
2022/05/12 04:40:07;;;;;;;13.75;8.95;;;;;;;;;;5038221;28;93340;-74
2022/05/12 04:42:34;;;;;;;14.48;9.27;;;;;;;;;;5033993;28;95466;-74
2022/05/12 04:45:01;;;;;;;17.67;9.00;;;;;;;;;;5035658;28;94368;-73
2022/05/12 04:47:27;;;;;;;20.35;9.70;;;;;;;;;;5034759;28;92497;-73
2022/05/12 04:49:55;;;;;;;13.77;9.23;;;;;;;;;;5035140;28;93159;-74
2022/05/12 04:52:21;;;;;;;10.55;8.00;;;;;;;;;;5035057;28;93406;-74
2022/05/12 04:54:47;;;;;;;13.68;8.88;;;;;;;;;;5034860;28;92851;-73
2022/05/12 04:57:14;;;;;;;14.70;8.25;;;;;;;;;;5035769;28;94219;-74
2022/05/12 04:59:46;;;;;;;13.02;8.38;;;;;;;;;;5036192;28;93412;-73
2022/05/12 05:02:13;;;;;;;13.32;8.38;;;;;;;;;;5038022;28;92485;-73
2022/05/12 05:04:39;;;;;;;15.18;8.85;;;;;;;;;;5035105;28;94100;-73
2022/05/12 05:07:08;;;;;;;10.13;8.02;;;;;;;;;;5033891;28;94945;-73
2022/05/12 05:09:34;;;;;;;14.43;7.63;;;;;;;;;;5034665;28;96117;-73
2022/05/12 05:12:01;;;;;;;13.15;8.20;;;;;;;;;;5035680;28;94578;-73
2022/05/12 05:14:28;;;;;;;10.07;7.35;;;;;;;;;;5035272;28;92423;-73
2022/05/12 05:16:54;;;;;;;12.95;8.25;;;;;;;;;;5034968;27;94272;-73
2022/05/12 05:19:21;;;;;;;19.27;7.90;;;;;;;;;;5034845;27;93096;-74
2022/05/12 05:21:48;;;;;;;14.63;7.78;;;;;;;;;;5034807;28;92476;-74
2022/05/12 05:24:14;;;;;;;18.90;8.13;;;;;;;;;;5038682;28;93981;-73
2022/05/12 05:26:41;;;;;;;13.85;7.22;;;;;;;;;;5034233;28;92509;-73
2022/05/12 05:29:07;;;;;;;11.57;7.18;;;;;;;;;;5034635;27;93918;-74
2022/05/12 05:31:36;;;;;;;14.73;7.28;;;;;;;;;;5032654;27;96334;-73
2022/05/12 05:34:02;;;;;;;14.57;7.65;;;;;;;;;;5034877;28;93008;-73
2022/05/12 05:36:28;;;;;;;16.38;7.53;;;;;;;;;;5033833;28;93150;-73
2022/05/12 05:38:55;;;;;;;11.93;7.78;;;;;;;;;;5034984;28;94504;-74
2022/05/12 05:41:22;;;;;;;13.60;6.88;;;;;;;;;;5034583;28;92473;-73
2022/05/12 05:43:48;;;;;;;9.07;6.00;;;;;;;;;;5034339;28;93879;-73
2022/05/12 05:46:16;;;;;;;14.80;6.80;;;;;;;;;;5037241;27;94299;-73
2022/05/12 05:48:50;;;;;;;16.02;7.15;;;;;;;;;;5034848;28;94401;-73
2022/05/12 05:54:01;;;;;;;9.88;6.22;;;;;;;;;;5034909;28;92785;-73
2022/05/12 05:56:28;;;;;;;12.90;6.78;;;;;;;;;;5032567;28;94820;-73
2022/05/12 05:58:54;;;;;;;13.77;6.10;;;;;;;;;;5034032;28;94051;-74
2022/05/12 06:01:20;;;;;;;7.45;6.47;;;;;;;;;;5034358;28;92455;-73
2022/05/12 06:03:47;;;;;;;19.33;6.03;;;;;;;;;;5034646;28;94170;-73
2022/05/12 06:06:13;;;;;;;10.35;5.75;;;;;;;;;;5034116;28;94587;-73
2022/05/12 06:08:39;;;;;;;10.27;5.40;;;;;;;;;;5037475;28;93022;-74
2022/05/12 06:11:06;;;;;;;7.72;5.70;;;;;;;;;;5033752;28;94375;-74
2022/05/12 06:13:34;;;;;;;15.43;5.65;;;;;;;;;;5034765;28;92360;-73
2022/05/12 06:16:01;;;;;;;9.95;5.22;;;;;;;;;;5034653;28;93224;-73
2022/05/12 06:18:27;;;;;;;13.35;5.28;;;;;;;;;;5032711;28;93080;-74
2022/05/12 06:20:53;;;;;;;10.15;5.80;;;;;;;;;;5032794;28;94845;-74
2022/05/12 06:23:20;;;;;;;11.88;5.95;;;;;;;;;;5034345;28;96240;-74
2022/05/12 06:25:47;;;;;;;10.82;5.18;;;;;;;;;;5032109;28;93517;-74
2022/05/12 06:28:13;;;;;;;8.27;5.30;;;;;;;;;;5034164;28;92546;-74
2022/05/12 06:30:39;;;;;;;9.43;5.40;;;;;;;;;;5036587;27;93960;-74
2022/05/12 06:33:06;;;;;;;10.45;4.30;;;;;;;;;;5033807;28;93022;-74
2022/05/12 06:35:33;;;;;;;14.63;4.68;;;;;;;;;;5033991;28;94015;-75
2022/05/12 06:37:59;;;;;;;13.65;4.40;;;;;;;;;;5034057;28;92761;-75
2022/05/12 06:40:26;;;;;;;7.25;3.92;;;;;;;;;;5033375;28;93997;-75
2022/05/12 06:42:53;;;;;;;7.95;3.80;;;;;;;;;;5034189;28;93974;-75
2022/05/12 06:45:20;;;;;;;12.02;4.05;;;;;;;;;;5031678;28;95934;-75
2022/05/12 06:47:50;;;;;;;11.80;3.85;;;;;;;;;;5033411;28;92492;-75
2022/05/12 06:50:19;;;;;;;11.10;3.95;;;;;;;;;;5036805;28;93809;-73
2022/05/12 06:52:46;;;;;;;9.93;3.55;;;;;;;;;;5033594;28;92456;-73
2022/05/12 06:55:12;;;;;;;19.75;3.63;;;;;;;;;;5033253;28;93857;-73
2022/05/12 06:57:39;;;;;;;13.52;3.63;;;;;;;;;;5032666;28;93129;-73
2022/05/12 07:00:06;;;;;;;11.48;3.85;;;;;;;;;;5033077;28;92606;-74
2022/05/12 07:02:33;;;;;;;8.23;2.83;;;;;;;;;;5034165;28;94134;-74
2022/05/12 07:05:00;;;;;;;6.07;2.97;;;;;;;;;;5033725;28;94438;-74
2022/05/12 07:07:28;;;;;;;11.77;2.92;;;;;;;;;;5031524;28;92980;-74
2022/05/12 07:09:55;;;;;;;8.18;3.70;;;;;;;;;;5032228;28;95376;-74
2022/05/12 07:12:22;;;;;;;12.10;3.60;;;;;;;;;;5036734;28;94228;-74
2022/05/12 07:14:49;;;;;;;9.27;3.80;;;;;;;;;;5033097;28;92495;-74
2022/05/12 07:17:19;;;;;;;8.32;3.50;;;;;;;;;;5033707;28;94184;-76
2022/05/12 07:19:46;;;;;;;5.40;2.60;;;;;;;;;;5033458;28;92485;-74
2022/05/12 07:27:43;;;;;;;6.82;2.88;;;;;;;;;;5033381;28;91690;-74
2022/05/12 07:30:10;;;;;;;8.00;2.97;;;;;;;;;;5032277;28;92452;-74
2022/05/12 07:32:37;;;;;;;9.60;2.90;;;;;;;;;;5032797;28;93961;-74
2022/05/12 07:35:05;;;;;;;6.30;2.92;;;;;;;;;;5034674;28;95783;-74
2022/05/12 07:37:32;;;;;;;6.90;2.80;;;;;;;;;;5031859;27;93359;-75
2022/05/12 07:39:58;;;;;;;12.60;2.38;;;;;;;;;;5033091;28;92528;-75
2022/05/12 07:42:24;;;;;;;8.95;2.33;;;;;;;;;;5031931;27;93163;-74
2022/05/12 07:44:51;;;;;;;8.38;2.78;;;;;;;;;;5032891;28;94190;-74
2022/05/12 07:47:19;;;;;;;11.95;3.03;;;;;;;;;;5033028;28;92495;-75
2022/05/12 07:49:46;;;;;;;7.10;2.78;;;;;;;;;;5032599;28;95136;-74
2022/05/12 07:52:14;;;;;;;10.15;3.25;;;;;;;;;;5033458;28;93418;-75
2022/05/12 07:54:40;;;;;;;7.00;2.70;;;;;;;;;;5032604;28;92551;-74
2022/05/12 07:57:07;;;;;;;6.95;2.17;;;;;;;;;;5034963;28;93152;-74
2022/05/12 07:59:40;;;;;;;7.45;2.90;;;;;;;;;;5030742;28;95222;-75
2022/05/12 08:02:06;;;;;;;6.07;2.55;;;;;;;;;;5032969;28;96227;-75
2022/05/12 08:04:34;;;;;;;6.95;2.28;;;;;;;;;;5031717;28;94118;-74
2022/05/12 08:07:01;;;;;;;6.63;2.72;;;;;;;;;;5033038;28;92477;-74
2022/05/12 08:09:28;;;;;;;5.22;2.42;;;;;;;;;;5031800;28;92987;-74
2022/05/12 08:11:54;;;;;;;3.85;2.08;;;;;;;;;;5032043;28;93946;-74
2022/05/12 08:14:20;;;;;;;3.28;2.10;;;;;;;;;;5032659;28;92422;-74
2022/05/12 08:16:47;;;;;;;3.03;1.90;;;;;;;;;;5032913;28;92862;-74
2022/05/12 08:19:14;;;;;;;9.30;2.38;;;;;;;;;;5034586;28;93401;-74
2022/05/12 08:21:40;;;;;;;9.45;2.28;;;;;;;;;;5032569;28;94255;-74
2022/05/12 08:24:07;;;;;;;5.57;2.25;;;;;;;;;;5030330;28;95771;-74
2022/05/12 08:26:33;;;;;;;4.88;1.63;;;;;;;;;;5031259;28;92932;-74
2022/05/12 08:28:59;;;;;;;6.13;2.15;;;;;;;;;;5032402;28;93924;-75
2022/05/12 08:31:29;;;;;;;6.65;2.10;;;;;;;;;;5032014;28;94054;-74
2022/05/12 08:33:57;;;;;;;6.55;1.88;;;;;;;;;;5031723;28;93375;-75
2022/05/12 08:36:24;;;;;;;5.70;2.20;;;;;;;;;;5031689;28;92995;-74
2022/05/12 08:38:50;;;;;;;3.65;1.77;;;;;;;;;;5031744;28;94255;-74
2022/05/12 08:41:30;;;;;;;4.43;1.98;;;;;;;;;;5035465;28;91677;-74
2022/05/12 08:44:00;;;;;;;6.32;2.13;;;;;;;;;;5031612;28;93668;-74
2022/05/12 08:46:54;;;;;;;5.07;1.70;;;;;;;;;;5031153;28;92495;-74
2022/05/12 08:49:29;;;;;;;5.28;1.83;;;;;;;;;;5027769;28;96021;-74
2022/05/12 08:52:04;;;;;;;6.22;1.80;;;;;;;;;;5031845;28;92447;-75
2022/05/12 08:54:30;;;;;;;6.10;2.00;;;;;;;;;;5031175;28;92412;-75
2022/05/12 08:57:02;;;;;;;6.22;2.28;;;;;;;;;;5032223;28;93775;-74
2022/05/12 08:59:29;;;;;;;3.35;1.67;;;;;;;;;;5031636;28;94547;-74
2022/05/12 09:01:59;;;;;;;6.40;2.30;;;;;;;;;;5034432;28;92473;-74
2022/05/12 09:04:49;;;;;;;4.93;1.88;;;;;;;;;;5031606;28;94264;-75
2022/05/12 09:07:19;;;;;;;4.50;1.75;;;;;;;;;;5031522;28;91765;-75
2022/05/12 09:09:45;;;;;;;4.75;2.08;;;;;;;;;;5031851;28;93523;-75
2022/05/12 09:12:21;;;;;;;3.40;2.05;;;;;;;;;;5031660;28;93077;-75
2022/05/12 09:14:52;;;;;;;4.07;1.95;;;;;;;;;;5029399;28;95185;-75
2022/05/12 09:17:20;;;;;;;3.42;1.70;;;;;;;;;;5031885;28;96265;-75
2022/05/12 09:19:46;;;;;;;5.47;2.63;;;;;;;;;;5031149;28;93123;-75
2022/05/12 09:22:12;;;;;;;5.93;1.75;;;;;;;;;;5033057;27;93167;-75
2022/05/12 09:24:39;;;;;;;2.85;1.55;;;;;;;;;;5038090;28;93714;-75
2022/05/12 09:27:10;;;;;;;7.68;1.88;;;;;;;;;;5034261;28;92630;-75
2022/05/12 09:29:44;;;;;;;5.17;1.60;;;;;;;;;;5034458;28;93962;-75
2022/05/12 09:32:10;;;;;;;4.50;1.92;;;;;;;;;;5035427;28;92654;-75
2022/05/12 09:34:38;;;;;;;7.30;1.92;;;;;;;;;;5034493;28;92483;-75
2022/05/12 09:37:16;;;;;;;5.18;1.58;;;;;;;;;;5034747;28;93886;-75
2022/05/12 09:39:44;;;;;;;6.95;1.90;;;;;;;;;;5032727;28;96531;-75
2022/05/12 09:42:18;;;;;;;3.00;1.33;;;;;;;;;;5034496;28;92693;-75
2022/05/12 09:44:54;;;;;;;3.03;1.73;;;;;;;;;;5034742;28;93143;-74
2022/05/12 09:47:21;;;;;;;4.50;1.70;;;;;;;;;;5037724;28;93174;-74
2022/05/12 09:49:47;;;;;;;5.57;1.83;;;;;;;;;;5034131;27;94058;-74
2022/05/12 09:52:27;;;;;;;4.20;1.73;;;;;;;;;;5034678;28;94208;-74
2022/05/12 09:55:12;;;;;;;6.38;1.67;;;;;;;;;;5034864;28;92484;-74
2022/05/12 09:57:46;;;;;;;4.82;1.80;;;;;;;;;;5034595;28;94257;-73
2022/05/12 10:00:30;;;;;;;3.28;1.40;;;;;;;;;;5034473;28;94146;-74
2022/05/12 10:08:30;;;;;;;7.15;1.48;;;;;;;;;;5033868;28;93482;-74
2022/05/12 10:11:02;;;;;;;2.45;1.25;;;;;;;;;;5036896;28;92857;-74
2022/05/12 10:13:47;;;;;;;7.25;1.77;;;;;;;;;;5033944;28;93079;-74
2022/05/12 10:16:15;;;;;;;1.90;1.40;;;;;;;;;;5034388;28;92431;-74
2022/05/12 10:18:59;;;;;;;5.05;1.73;;;;;;;;;;5033222;28;93326;-74
2022/05/12 10:21:25;;;;;;;7.32;2.33;;;;;;;;;;5033580;28;93745;-75
2022/05/12 10:24:02;;;;;;;3.22;1.50;;;;;;;;;;5034627;28;91888;-75
2022/05/12 10:26:42;;;;;;;6.72;1.70;;;;;;;;;;5033769;28;93443;-74
2022/05/12 10:29:25;;;;;;;10.95;1.63;;;;;;;;;;5034249;28;93154;-75
2022/05/12 10:31:57;;;;;;;3.53;1.60;;;;;;;;;;5031705;28;95629;-75
2022/05/12 10:34:44;;;;;;;2.70;1.30;;;;;;;;;;5036927;28;96269;-74
2022/05/12 10:37:29;;;;;;;3.88;1.30;;;;;;;;;;5033752;28;92731;-75
2022/05/12 10:40:15;;;;;;;5.70;1.42;;;;;;;;;;5033238;28;93967;-75
2022/05/12 10:43:04;;;;;;;3.85;1.77;;;;;;;;;;5033262;28;92426;-75
2022/05/12 10:46:00;;;;;;;6.50;1.83;;;;;;;;;;5033220;28;92348;-75
2022/05/12 10:48:45;;;;;;;2.15;1.35;;;;;;;;;;5015747;28;93994;-74
2022/05/12 10:51:19;;;;;;;3.75;1.40;;;;;;;;;;5034219;28;93674;-74
2022/05/12 10:54:03;;;;;;;4.45;1.30;;;;;;;;;;5032966;28;92513;-74
2022/05/12 10:56:33;;;;;;;6.85;2.00;;;;;;;;;;5036092;28;93344;-74
2022/05/12 10:59:07;;;;;;;5.80;1.70;;;;;;;;;;5032378;28;94929;-74
2022/05/12 11:01:38;;;;;;;5.00;1.63;;;;;;;;;;5032718;28;95492;-74
2022/05/12 11:04:08;;;;;;;3.80;1.83;;;;;;;;;;5033576;27;94012;-73
2022/05/12 11:06:40;;;;;;;2.58;1.60;;;;;;;;;;5032740;28;92792;-74
2022/05/12 11:09:11;;;;;;;3.42;1.70;;;;;;;;;;5033552;28;93853;-74
2022/05/12 11:11:39;;;;;;;5.95;1.77;;;;;;;;;;5033263;28;94486;-74
2022/05/12 11:14:24;;;;;;;4.75;1.65;;;;;;;;;;5032851;28;92779;-74
2022/05/12 11:17:00;;;;;;;4.97;1.85;;;;;;;;;;5034179;28;92868;-74
2022/05/12 11:19:26;;;;;;;3.00;1.58;;;;;;;;;;5036068;28;94505;-74
2022/05/12 11:22:12;;;;;;;8.02;1.92;;;;;;;;;;5032836;28;94567;-74
2022/05/12 11:25:08;;;;;;;11.90;2.00;;;;;;;;;;5031117;28;95923;-74
2022/05/12 11:27:44;;;;;;;2.55;1.85;;;;;;;;;;5014657;28;92666;-74
2022/05/12 11:30:29;;;;;;;2.08;1.40;;;;;;;;;;5033359;28;94252;-74
2022/05/12 11:33:16;;;;;;;4.75;1.60;;;;;;;;;;5033156;28;93119;-74
2022/05/12 11:35:43;;;;;;;4.55;1.42;;;;;;;;;;5032422;28;92461;-75
2022/05/12 11:38:30;;;;;;;3.03;1.63;;;;;;;;;;5033339;28;93884;-75
2022/05/12 11:40:57;;;;;;;2.13;1.35;;;;;;;;;;5033027;28;94161;-74
2022/05/12 11:46:30;;;;;;;1.90;1.27;;;;;;;;;;5032998;28;94225;-74
2022/05/12 11:48:58;;;;;;;2.85;1.17;;;;;;;;;;5032577;28;92441;-74
2022/05/12 11:51:43;;;;;;;3.42;1.45;;;;;;;;;;5031073;27;94843;-74
2022/05/12 11:54:30;;;;;;;1.73;1.33;;;;;;;;;;5032973;28;94272;-74
2022/05/12 11:56:58;;;;;;;3.08;1.55;;;;;;;;;;5032437;28;92610;-74
2022/05/12 11:59:30;;;;;;;1.27;1.13;;;;;;;;;;5032423;28;93144;-74
2022/05/12 12:02:05;;;;;;;2.60;1.20;;;;;;;;;;5032957;28;94313;-75
2022/05/12 12:04:42;;;;;;;0.90;0.90;;;;;;;;;;5031839;28;92453;-74
2022/05/12 12:07:20;;;;;;;2.83;1.45;;;;;;;;;;5035486;28;92935;-74
2022/05/12 12:09:55;;;;;;;3.67;1.42;;;;;;;;;;5032517;28;91867;-74
2022/05/12 12:12:40;;;;;;;5.45;1.75;;;;;;;;;;5032605;28;93610;-75
2022/05/12 12:15:07;;;;;;;6.18;1.60;;;;;;;;;;5032531;28;94260;-75
2022/05/12 12:17:38;;;;;;;4.82;1.75;;;;;;;;;;5030198;28;95218;-75
2022/05/12 12:20:08;;;;;;;4.30;2.08;;;;;;;;;;5032216;28;95400;-75
2022/05/12 12:22:37;;;;;;;4.00;1.65;;;;;;;;;;5032294;28;94172;-75
2022/05/12 12:25:09;;;;;;;1.67;1.30;;;;;;;;;;5031235;28;93022;-75
2022/05/12 12:27:52;;;;;;;3.92;1.70;;;;;;;;;;5032022;28;93643;-76
2022/05/12 12:30:24;;;;;;;6.07;1.77;;;;;;;;;;5034705;28;93630;-76
2022/05/12 12:32:50;;;;;;;;;;;;;;;;;;5032504;28;93957;-76
2022/05/12 12:35:28;;;;;;;3.88;1.40;;;;;;;;;;5033022;28;123773;-76
2022/05/12 12:37:54;;;;;;;4.03;1.83;;;;;;;;;;5031751;28;92896;-76
2022/05/12 12:40:41;;;;;;;4.35;1.88;;;;;;;;;;5032368;28;94327;-76
2022/05/12 12:43:16;;;;;;;2.75;1.70;;;;;;;;;;5030299;28;99033;-75
2022/05/12 12:45:46;;;;;;;5.13;1.60;;;;;;;;;;5031521;28;92449;-75
2022/05/12 12:48:16;;;;;;;7.95;1.85;;;;;;;;;;5032291;28;94127;-75
2022/05/12 12:50:45;;;;;;;5.05;2.38;;;;;;;;;;5031748;28;94597;-76
2022/05/12 12:56:30;;;;;;;4.57;1.90;;;;;;;;;;5034319;28;93139;-76
2022/05/12 12:56:30;;;;;;;2.90;1.55;;;;;;;;;;5032692;27;94328;-76
2022/05/12 12:59:17;;;;;;;2.35;1.65;;;;;;;;;;5035377;28;92493;-76
2022/05/12 13:01:44;;;;;;;4.63;1.67;;;;;;;;;;5035516;28;93287;-75
2022/05/12 13:04:11;;;;;;;5.72;1.90;;;;;;;;;;5035508;28;94191;-75
2022/05/12 13:06:39;;;;;;;4.18;1.58;;;;;;;;;;5034584;28;92958;-76
2022/05/12 13:09:09;;;;;;;3.67;1.83;;;;;;;;;;5033885;28;94957;-76
2022/05/12 13:11:39;;;;;;;3.70;1.60;;;;;;;;;;5034843;28;93754;-76
2022/05/12 13:14:11;;;;;;;9.88;1.67;;;;;;;;;;5037991;28;93068;-76
2022/05/12 13:16:39;;;;;;;4.32;1.75;;;;;;;;;;5035012;28;94238;-76
2022/05/12 13:19:07;;;;;;;5.70;1.42;;;;;;;;;;5035555;28;93653;-76
2022/05/12 13:21:47;;;;;;;5.28;1.60;;;;;;;;;;5034418;28;93896;-76
2022/05/12 13:24:17;;;;;;;3.65;1.20;;;;;;;;;;5035107;28;94155;-76
2022/05/12 13:26:45;;;;;;;2.38;1.45;;;;;;;;;;5034939;28;91853;-76
2022/05/12 13:29:13;;;;;;;4.80;2.15;;;;;;;;;;5034156;28;92584;-76
2022/05/12 13:31:41;;;;;;;2.00;1.55;;;;;;;;;;5034818;28;94446;-76
2022/05/12 13:34:13;;;;;;;2.25;1.90;;;;;;;;;;5032337;28;94893;-76
2022/05/12 13:36:40;;;;;;;4.22;1.63;;;;;;;;;;5037454;28;95669;-76
2022/05/12 13:39:07;;;;;;;3.03;1.50;;;;;;;;;;5034699;28;92906;-76
2022/05/12 13:41:38;;;;;;;2.60;1.35;;;;;;;;;;5033818;28;94547;-76
2022/05/12 13:44:07;;;;;;;10.30;1.83;;;;;;;;;;5034365;28;93286;-76
2022/05/12 13:46:34;;;;;;;4.47;1.40;;;;;;;;;;5034104;28;92508;-76
2022/05/12 13:49:09;;;;;;;4.60;1.40;;;;;;;;;;5034283;28;93909;-76
2022/05/12 13:51:44;;;;;;;3.40;1.75;;;;;;;;;;5034684;28;93299;-76
2022/05/12 13:54:34;;;;;;;2.25;1.50;;;;;;;;;;5034571;28;92445;-75
2022/05/12 13:57:27;;;;;;;1.52;1.40;;;;;;;;;;5034391;28;94013;-75
2022/05/12 13:59:53;;;;;;;5.57;1.60;;;;;;;;;;5003531;28;94918;-75
2022/05/12 14:02:25;;;;;;;5.85;1.83;;;;;;;;;;5033743;28;95513;-75
2022/05/12 14:04:56;;;;;;;2.30;1.43;;;;;;;;;;5034557;28;94441;-75
2022/05/12 14:07:26;;;;;;;5.85;1.33;;;;;;;;;;5033933;27;92444;-75
2022/05/12 14:09:54;;;;;;;4.13;1.60;;;;;;;;;;5033742;28;92969;-76
2022/05/12 14:19:13;;;;;;;2.88;1.70;;;;;;;;;;5033016;27;93852;-75
2022/05/12 14:20:59;;;;;;;4.47;1.65;;;;;;;;;;5034246;28;94227;-75
2022/05/12 14:23:25;;;;;;;5.30;1.60;;;;;;;;;;5036558;28;92497;-75
2022/05/12 14:25:51;;;;;;;4.00;1.63;;;;;;;;;;5031776;28;96400;-76
2022/05/12 14:28:19;;;;;;;6.03;1.77;;;;;;;;;;5034261;28;92493;-75
2022/05/12 14:30:45;;;;;;;2.80;1.40;;;;;;;;;;5033255;28;93825;-76
2022/05/12 14:33:12;;;;;;;2.28;1.35;;;;;;;;;;5034045;28;94157;-75
2022/05/12 14:35:38;;;;;;;7.55;1.67;;;;;;;;;;5033928;28;92505;-75
2022/05/12 14:38:05;;;;;;;3.20;1.40;;;;;;;;;;5033218;28;93108;-76
2022/05/12 14:40:31;;;;;;;4.32;1.33;;;;;;;;;;5033356;28;93381;-75
2022/05/12 14:42:58;;;;;;;2.30;1.45;;;;;;;;;;5034697;28;92290;-75
2022/05/12 14:45:24;;;;;;;5.72;1.88;;;;;;;;;;5035887;28;92870;-75
2022/05/12 14:47:53;;;;;;;5.65;2.20;;;;;;;;;;5033545;28;93330;-75
2022/05/12 14:50:21;;;;;;;5.88;2.30;;;;;;;;;;5032497;28;94866;-76
2022/05/12 14:52:47;;;;;;;2.75;1.88;;;;;;;;;;5033011;28;94244;-75
2022/05/12 14:55:13;;;;;;;4.30;1.65;;;;;;;;;;5033614;28;92584;-76
2022/05/12 14:57:40;;;;;;;2.90;2.08;;;;;;;;;;5033563;28;94003;-76
2022/05/12 15:00:07;;;;;;;3.35;1.85;;;;;;;;;;5032957;28;94409;-75
2022/05/12 15:02:38;;;;;;;3.80;1.60;;;;;;;;;;5033257;28;92746;-75
2022/05/12 15:05:06;;;;;;;9.10;3.22;;;;;;;;;;5033493;28;93164;-75
2022/05/12 15:07:32;;;;;;;3.80;1.55;;;;;;;;;;5035922;27;92598;-75
2022/05/12 15:09:59;;;;;;;3.15;1.67;;;;;;;;;;5033650;28;93084;-75
2022/05/12 15:12:25;;;;;;;7.93;1.52;;;;;;;;;;5032569;28;94259;-75
2022/05/12 15:14:51;;;;;;;5.50;2.03;;;;;;;;;;5031665;27;94926;-75